sensor_id;sensor_type;location;lat;lon;timestamp;temperature;humidity
70986;DHT22;58645;43.068;25.610;2023-12-07T00:01:26;3.60;99.90
70986;DHT22;58645;43.068;25.610;2023-12-07T00:03:52;3.50;99.90
70986;DHT22;58645;43.068;25.610;2023-12-07T00:06:18;3.50;99.90
70986;DHT22;58645;43.068;25.610;2023-12-07T00:08:43;3.50;99.90
70986;DHT22;58645;43.068;25.610;2023-12-07T00:11:09;3.50;99.90
70986;DHT22;58645;43.068;25.610;2023-12-07T00:13:35;3.50;99.90
70986;DHT22;58645;43.068;25.610;2023-12-07T00:16:00;3.50;99.90
70986;DHT22;58645;43.068;25.610;2023-12-07T00:18:26;3.50;99.90
70986;DHT22;58645;43.068;25.610;2023-12-07T00:20:52;3.50;99.90
70986;DHT22;58645;43.068;25.610;2023-12-07T00:23:17;3.50;99.90
70986;DHT22;58645;43.068;25.610;2023-12-07T00:25:43;3.50;99.90
70986;DHT22;58645;43.068;25.610;2023-12-07T00:28:11;3.50;99.90
70986;DHT22;58645;43.068;25.610;2023-12-07T00:30:37;3.60;99.90
70986;DHT22;58645;43.068;25.610;2023-12-07T00:33:02;3.60;99.90
70986;DHT22;58645;43.068;25.610;2023-12-07T00:35:28;3.60;99.90
70986;DHT22;58645;43.068;25.610;2023-12-07T00:37:55;3.60;99.90
70986;DHT22;58645;43.068;25.610;2023-12-07T00:40:22;3.60;99.90
70986;DHT22;58645;43.068;25.610;2023-12-07T00:42:48;3.60;99.90
70986;DHT22;58645;43.068;25.610;2023-12-07T00:45:14;3.60;99.90
70986;DHT22;58645;43.068;25.610;2023-12-07T00:47:39;3.60;99.90
70986;DHT22;58645;43.068;25.610;2023-12-07T00:50:06;3.60;99.90
70986;DHT22;58645;43.068;25.610;2023-12-07T00:52:32;3.60;99.90
70986;DHT22;58645;43.068;25.610;2023-12-07T00:54:57;3.60;99.90
70986;DHT22;58645;43.068;25.610;2023-12-07T00:57:23;3.60;99.90
70986;DHT22;58645;43.068;25.610;2023-12-07T00:59:49;3.70;99.90
70986;DHT22;58645;43.068;25.610;2023-12-07T01:02:14;3.70;99.90
70986;DHT22;58645;43.068;25.610;2023-12-07T01:04:40;3.70;99.90
70986;DHT22;58645;43.068;25.610;2023-12-07T01:07:06;3.70;99.90
70986;DHT22;58645;43.068;25.610;2023-12-07T01:09:33;3.70;99.90
70986;DHT22;58645;43.068;25.610;2023-12-07T01:11:59;3.70;99.90
70986;DHT22;58645;43.068;25.610;2023-12-07T01:14:25;3.70;99.90
70986;DHT22;58645;43.068;25.610;2023-12-07T01:16:50;3.70;99.90
70986;DHT22;58645;43.068;25.610;2023-12-07T01:19:16;3.80;99.90
70986;DHT22;58645;43.068;25.610;2023-12-07T01:21:42;3.80;99.90
70986;DHT22;58645;43.068;25.610;2023-12-07T01:24:08;3.70;99.90
70986;DHT22;58645;43.068;25.610;2023-12-07T01:26:34;3.70;99.90
70986;DHT22;58645;43.068;25.610;2023-12-07T01:29:00;3.70;99.90
70986;DHT22;58645;43.068;25.610;2023-12-07T01:31:25;3.70;99.90
70986;DHT22;58645;43.068;25.610;2023-12-07T01:33:51;3.70;99.90
70986;DHT22;58645;43.068;25.610;2023-12-07T01:36:17;3.80;99.90
70986;DHT22;58645;43.068;25.610;2023-12-07T01:38:43;3.70;99.90
70986;DHT22;58645;43.068;25.610;2023-12-07T01:41:09;3.70;99.90
70986;DHT22;58645;43.068;25.610;2023-12-07T01:43:35;3.70;99.90
70986;DHT22;58645;43.068;25.610;2023-12-07T01:46:01;3.80;99.90
70986;DHT22;58645;43.068;25.610;2023-12-07T01:48:28;3.80;99.90
70986;DHT22;58645;43.068;25.610;2023-12-07T01:50:56;3.80;99.90
70986;DHT22;58645;43.068;25.610;2023-12-07T01:53:23;3.80;99.90
70986;DHT22;58645;43.068;25.610;2023-12-07T01:55:51;3.80;99.90
70986;DHT22;58645;43.068;25.610;2023-12-07T01:58:18;3.80;99.90
70986;DHT22;58645;43.068;25.610;2023-12-07T02:00:45;3.80;99.90
70986;DHT22;58645;43.068;25.610;2023-12-07T02:03:11;3.80;99.90
70986;DHT22;58645;43.068;25.610;2023-12-07T02:05:37;3.80;99.90
70986;DHT22;58645;43.068;25.610;2023-12-07T02:08:06;3.80;99.90
70986;DHT22;58645;43.068;25.610;2023-12-07T02:10:32;3.80;99.90
70986;DHT22;58645;43.068;25.610;2023-12-07T02:12:57;3.80;99.90
70986;DHT22;58645;43.068;25.610;2023-12-07T02:15:23;3.70;99.90
70986;DHT22;58645;43.068;25.610;2023-12-07T02:23:27;3.70;99.90
70986;DHT22;58645;43.068;25.610;2023-12-07T02:26:32;3.70;99.90
70986;DHT22;58645;43.068;25.610;2023-12-07T02:28:57;3.70;99.90
70986;DHT22;58645;43.068;25.610;2023-12-07T02:31:23;3.80;99.90
70986;DHT22;58645;43.068;25.610;2023-12-07T02:33:49;3.70;99.90
70986;DHT22;58645;43.068;25.610;2023-12-07T02:36:19;3.70;99.90
70986;DHT22;58645;43.068;25.610;2023-12-07T02:38:47;3.70;99.90
70986;DHT22;58645;43.068;25.610;2023-12-07T02:41:15;3.70;99.90
70986;DHT22;58645;43.068;25.610;2023-12-07T02:43:41;3.70;99.90
70986;DHT22;58645;43.068;25.610;2023-12-07T02:46:07;3.70;99.90
70986;DHT22;58645;43.068;25.610;2023-12-07T02:48:33;3.70;99.90
70986;DHT22;58645;43.068;25.610;2023-12-07T02:50:59;3.60;99.90
70986;DHT22;58645;43.068;25.610;2023-12-07T02:53:25;3.60;99.90
70986;DHT22;58645;43.068;25.610;2023-12-07T02:55:50;3.60;99.90
70986;DHT22;58645;43.068;25.610;2023-12-07T02:58:16;3.60;99.90
70986;DHT22;58645;43.068;25.610;2023-12-07T03:00:42;3.60;99.90
70986;DHT22;58645;43.068;25.610;2023-12-07T03:03:07;3.50;99.90
70986;DHT22;58645;43.068;25.610;2023-12-07T03:05:33;3.50;99.90
70986;DHT22;58645;43.068;25.610;2023-12-07T03:07:59;3.60;99.90
70986;DHT22;58645;43.068;25.610;2023-12-07T03:10:25;3.60;99.90
70986;DHT22;58645;43.068;25.610;2023-12-07T03:12:50;3.60;99.90
70986;DHT22;58645;43.068;25.610;2023-12-07T03:15:16;3.60;99.90
70986;DHT22;58645;43.068;25.610;2023-12-07T03:17:42;3.60;99.90
70986;DHT22;58645;43.068;25.610;2023-12-07T03:20:09;3.70;99.90
70986;DHT22;58645;43.068;25.610;2023-12-07T03:22:36;3.60;99.90
70986;DHT22;58645;43.068;25.610;2023-12-07T03:25:01;3.70;99.90
70986;DHT22;58645;43.068;25.610;2023-12-07T03:27:27;3.70;99.90
70986;DHT22;58645;43.068;25.610;2023-12-07T03:29:54;3.70;99.90
70986;DHT22;58645;43.068;25.610;2023-12-07T03:32:20;3.70;99.90
70986;DHT22;58645;43.068;25.610;2023-12-07T03:34:45;3.70;99.90
70986;DHT22;58645;43.068;25.610;2023-12-07T03:37:11;3.70;99.90
70986;DHT22;58645;43.068;25.610;2023-12-07T03:39:37;3.70;99.90
70986;DHT22;58645;43.068;25.610;2023-12-07T03:42:03;3.70;99.90
70986;DHT22;58645;43.068;25.610;2023-12-07T03:44:29;3.70;99.90
70986;DHT22;58645;43.068;25.610;2023-12-07T03:46:55;3.70;99.90
70986;DHT22;58645;43.068;25.610;2023-12-07T03:49:20;3.70;99.90
70986;DHT22;58645;43.068;25.610;2023-12-07T03:51:46;3.70;99.90
70986;DHT22;58645;43.068;25.610;2023-12-07T03:54:12;3.70;99.90
70986;DHT22;58645;43.068;25.610;2023-12-07T03:56:37;3.70;99.90
70986;DHT22;58645;43.068;25.610;2023-12-07T03:59:03;3.70;99.90
70986;DHT22;58645;43.068;25.610;2023-12-07T04:01:29;3.70;99.90
70986;DHT22;58645;43.068;25.610;2023-12-07T04:03:56;3.70;99.90
70986;DHT22;58645;43.068;25.610;2023-12-07T04:06:23;3.70;99.90
70986;DHT22;58645;43.068;25.610;2023-12-07T04:08:49;3.70;99.90
70986;DHT22;58645;43.068;25.610;2023-12-07T04:11:15;3.70;99.90
70986;DHT22;58645;43.068;25.610;2023-12-07T04:13:42;3.70;99.90
70986;DHT22;58645;43.068;25.610;2023-12-07T04:16:09;3.70;99.90
70986;DHT22;58645;43.068;25.610;2023-12-07T04:18:35;3.60;99.90
70986;DHT22;58645;43.068;25.610;2023-12-07T04:21:01;3.60;99.90
70986;DHT22;58645;43.068;25.610;2023-12-07T04:23:26;3.60;99.90
70986;DHT22;58645;43.068;25.610;2023-12-07T04:25:52;3.60;99.90
70986;DHT22;58645;43.068;25.610;2023-12-07T04:28:18;3.50;99.90
70986;DHT22;58645;43.068;25.610;2023-12-07T04:30:44;3.50;99.90
70986;DHT22;58645;43.068;25.610;2023-12-07T04:33:09;3.50;99.90
70986;DHT22;58645;43.068;25.610;2023-12-07T04:35:35;3.50;99.90
70986;DHT22;58645;43.068;25.610;2023-12-07T04:38:01;3.50;99.90
70986;DHT22;58645;43.068;25.610;2023-12-07T04:40:27;3.50;99.90
70986;DHT22;58645;43.068;25.610;2023-12-07T04:42:53;3.50;99.90
70986;DHT22;58645;43.068;25.610;2023-12-07T04:45:19;3.50;99.90
70986;DHT22;58645;43.068;25.610;2023-12-07T04:47:45;3.40;99.90
70986;DHT22;58645;43.068;25.610;2023-12-07T04:50:11;3.40;99.90
70986;DHT22;58645;43.068;25.610;2023-12-07T04:52:40;3.40;99.90
70986;DHT22;58645;43.068;25.610;2023-12-07T04:55:06;3.30;99.90
70986;DHT22;58645;43.068;25.610;2023-12-07T04:57:34;3.30;99.90
70986;DHT22;58645;43.068;25.610;2023-12-07T05:00:00;3.30;99.90
70986;DHT22;58645;43.068;25.610;2023-12-07T05:02:26;3.30;99.90
70986;DHT22;58645;43.068;25.610;2023-12-07T05:04:53;3.30;99.90
70986;DHT22;58645;43.068;25.610;2023-12-07T05:07:20;3.20;99.90
70986;DHT22;58645;43.068;25.610;2023-12-07T05:09:45;3.20;99.90
70986;DHT22;58645;43.068;25.610;2023-12-07T05:12:11;3.20;99.90
70986;DHT22;58645;43.068;25.610;2023-12-07T05:14:37;3.20;99.90
70986;DHT22;58645;43.068;25.610;2023-12-07T05:17:03;3.30;99.90
70986;DHT22;58645;43.068;25.610;2023-12-07T05:19:29;3.30;99.90
70986;DHT22;58645;43.068;25.610;2023-12-07T05:21:55;3.30;99.90
70986;DHT22;58645;43.068;25.610;2023-12-07T05:24:20;3.40;99.90
70986;DHT22;58645;43.068;25.610;2023-12-07T05:26:46;3.40;99.90
70986;DHT22;58645;43.068;25.610;2023-12-07T05:29:13;3.40;99.90
70986;DHT22;58645;43.068;25.610;2023-12-07T05:31:39;3.40;99.90
70986;DHT22;58645;43.068;25.610;2023-12-07T05:34:06;3.40;99.90
70986;DHT22;58645;43.068;25.610;2023-12-07T05:36:32;3.50;99.90
70986;DHT22;58645;43.068;25.610;2023-12-07T05:38:58;3.40;99.90
70986;DHT22;58645;43.068;25.610;2023-12-07T05:41:24;3.40;99.90
70986;DHT22;58645;43.068;25.610;2023-12-07T05:43:51;3.40;99.90
70986;DHT22;58645;43.068;25.610;2023-12-07T05:46:18;3.50;99.90
70986;DHT22;58645;43.068;25.610;2023-12-07T05:48:48;3.50;99.90
70986;DHT22;58645;43.068;25.610;2023-12-07T05:51:17;3.50;99.90
70986;DHT22;58645;43.068;25.610;2023-12-07T05:53:43;3.40;99.90
70986;DHT22;58645;43.068;25.610;2023-12-07T05:56:11;3.40;99.90
70986;DHT22;58645;43.068;25.610;2023-12-07T05:58:39;3.40;99.90
70986;DHT22;58645;43.068;25.610;2023-12-07T06:01:17;3.30;99.90
70986;DHT22;58645;43.068;25.610;2023-12-07T06:03:44;3.40;99.90
70986;DHT22;58645;43.068;25.610;2023-12-07T06:06:13;3.40;99.90
70986;DHT22;58645;43.068;25.610;2023-12-07T06:08:39;3.30;99.90
70986;DHT22;58645;43.068;25.610;2023-12-07T06:11:05;3.30;99.90
70986;DHT22;58645;43.068;25.610;2023-12-07T06:13:31;3.20;99.90
70986;DHT22;58645;43.068;25.610;2023-12-07T06:15:58;3.30;99.90
70986;DHT22;58645;43.068;25.610;2023-12-07T06:18:24;3.30;99.90
70986;DHT22;58645;43.068;25.610;2023-12-07T06:20:51;3.30;99.90
70986;DHT22;58645;43.068;25.610;2023-12-07T06:23:17;3.30;99.90
70986;DHT22;58645;43.068;25.610;2023-12-07T06:25:43;3.30;99.90
70986;DHT22;58645;43.068;25.610;2023-12-07T06:28:09;3.30;99.90
70986;DHT22;58645;43.068;25.610;2023-12-07T06:30:35;3.40;99.90
70986;DHT22;58645;43.068;25.610;2023-12-07T06:33:01;3.40;99.90
70986;DHT22;58645;43.068;25.610;2023-12-07T06:35:27;3.40;99.90
70986;DHT22;58645;43.068;25.610;2023-12-07T06:37:53;3.40;99.90
70986;DHT22;58645;43.068;25.610;2023-12-07T06:40:18;3.30;99.90
70986;DHT22;58645;43.068;25.610;2023-12-07T06:42:51;3.30;99.90
70986;DHT22;58645;43.068;25.610;2023-12-07T06:45:25;3.40;99.90
70986;DHT22;58645;43.068;25.610;2023-12-07T06:47:51;3.40;99.90
70986;DHT22;58645;43.068;25.610;2023-12-07T06:50:17;3.40;99.90
70986;DHT22;58645;43.068;25.610;2023-12-07T06:52:44;3.40;99.90
70986;DHT22;58645;43.068;25.610;2023-12-07T06:55:10;3.50;99.90
70986;DHT22;58645;43.068;25.610;2023-12-07T06:57:36;3.40;99.90
70986;DHT22;58645;43.068;25.610;2023-12-07T07:00:03;3.40;99.90
70986;DHT22;58645;43.068;25.610;2023-12-07T07:02:31;3.40;99.90
70986;DHT22;58645;43.068;25.610;2023-12-07T07:04:57;3.40;99.90
70986;DHT22;58645;43.068;25.610;2023-12-07T07:07:23;3.40;99.90
70986;DHT22;58645;43.068;25.610;2023-12-07T07:09:48;3.40;99.90
70986;DHT22;58645;43.068;25.610;2023-12-07T07:12:14;3.50;99.90
70986;DHT22;58645;43.068;25.610;2023-12-07T07:14:41;3.50;99.90
70986;DHT22;58645;43.068;25.610;2023-12-07T07:17:07;3.50;99.90
70986;DHT22;58645;43.068;25.610;2023-12-07T07:19:36;3.50;99.90
70986;DHT22;58645;43.068;25.610;2023-12-07T07:22:02;3.50;99.90
70986;DHT22;58645;43.068;25.610;2023-12-07T07:24:27;3.60;99.90
70986;DHT22;58645;43.068;25.610;2023-12-07T07:26:53;3.60;99.90
70986;DHT22;58645;43.068;25.610;2023-12-07T07:29:19;3.50;99.90
70986;DHT22;58645;43.068;25.610;2023-12-07T07:31:46;3.60;99.90
70986;DHT22;58645;43.068;25.610;2023-12-07T07:34:12;3.70;99.90
70986;DHT22;58645;43.068;25.610;2023-12-07T07:36:38;3.60;99.90
70986;DHT22;58645;43.068;25.610;2023-12-07T07:39:08;3.60;99.90
70986;DHT22;58645;43.068;25.610;2023-12-07T07:41:42;3.70;99.90
70986;DHT22;58645;43.068;25.610;2023-12-07T07:44:09;3.70;99.90
70986;DHT22;58645;43.068;25.610;2023-12-07T07:46:44;3.70;99.90
70986;DHT22;58645;43.068;25.610;2023-12-07T07:49:21;3.80;99.90
70986;DHT22;58645;43.068;25.610;2023-12-07T07:51:47;3.70;99.90
70986;DHT22;58645;43.068;25.610;2023-12-07T07:54:20;3.70;99.90
70986;DHT22;58645;43.068;25.610;2023-12-07T07:56:51;3.70;99.90
70986;DHT22;58645;43.068;25.610;2023-12-07T07:59:16;3.70;99.90
70986;DHT22;58645;43.068;25.610;2023-12-07T08:01:45;3.70;99.90
70986;DHT22;58645;43.068;25.610;2023-12-07T08:04:12;3.70;99.90
70986;DHT22;58645;43.068;25.610;2023-12-07T08:06:38;3.70;99.90
70986;DHT22;58645;43.068;25.610;2023-12-07T08:09:04;3.80;99.90
70986;DHT22;58645;43.068;25.610;2023-12-07T08:11:30;3.80;99.90
70986;DHT22;58645;43.068;25.610;2023-12-07T08:13:58;3.90;99.90
70986;DHT22;58645;43.068;25.610;2023-12-07T08:16:24;3.90;99.90
70986;DHT22;58645;43.068;25.610;2023-12-07T08:18:50;3.80;99.90
70986;DHT22;58645;43.068;25.610;2023-12-07T08:21:23;3.90;99.90
70986;DHT22;58645;43.068;25.610;2023-12-07T08:23:52;3.90;99.90
70986;DHT22;58645;43.068;25.610;2023-12-07T08:26:18;3.90;99.90
70986;DHT22;58645;43.068;25.610;2023-12-07T08:28:43;3.80;99.90
70986;DHT22;58645;43.068;25.610;2023-12-07T08:31:10;3.80;99.90
70986;DHT22;58645;43.068;25.610;2023-12-07T08:33:36;3.70;99.90
70986;DHT22;58645;43.068;25.610;2023-12-07T08:36:05;3.70;99.90
70986;DHT22;58645;43.068;25.610;2023-12-07T08:38:32;3.70;99.90
70986;DHT22;58645;43.068;25.610;2023-12-07T08:40:58;3.70;99.90
70986;DHT22;58645;43.068;25.610;2023-12-07T08:43:24;3.60;99.90
70986;DHT22;58645;43.068;25.610;2023-12-07T08:45:51;3.70;99.90
70986;DHT22;58645;43.068;25.610;2023-12-07T08:48:17;3.70;99.90
70986;DHT22;58645;43.068;25.610;2023-12-07T08:50:43;3.70;99.90
70986;DHT22;58645;43.068;25.610;2023-12-07T08:53:09;3.70;99.90
70986;DHT22;58645;43.068;25.610;2023-12-07T08:55:35;3.70;99.90
70986;DHT22;58645;43.068;25.610;2023-12-07T08:58:00;3.80;99.90
70986;DHT22;58645;43.068;25.610;2023-12-07T09:00:30;3.80;99.90
70986;DHT22;58645;43.068;25.610;2023-12-07T09:02:57;3.80;99.90
70986;DHT22;58645;43.068;25.610;2023-12-07T09:05:26;3.90;99.90
70986;DHT22;58645;43.068;25.610;2023-12-07T09:07:54;3.70;99.90
70986;DHT22;58645;43.068;25.610;2023-12-07T09:10:20;3.70;99.90
70986;DHT22;58645;43.068;25.610;2023-12-07T09:12:46;3.80;99.90
70986;DHT22;58645;43.068;25.610;2023-12-07T09:15:12;3.90;99.90
70986;DHT22;58645;43.068;25.610;2023-12-07T09:17:41;3.90;99.90
70986;DHT22;58645;43.068;25.610;2023-12-07T09:20:08;4.00;99.90
70986;DHT22;58645;43.068;25.610;2023-12-07T09:25:05;4.00;99.90
70986;DHT22;58645;43.068;25.610;2023-12-07T09:27:32;4.00;99.90
70986;DHT22;58645;43.068;25.610;2023-12-07T09:29:58;4.00;99.90
70986;DHT22;58645;43.068;25.610;2023-12-07T09:32:24;4.00;99.90
70986;DHT22;58645;43.068;25.610;2023-12-07T09:34:50;4.00;99.90
70986;DHT22;58645;43.068;25.610;2023-12-07T09:37:18;4.00;99.90
70986;DHT22;58645;43.068;25.610;2023-12-07T09:39:44;4.00;99.90
70986;DHT22;58645;43.068;25.610;2023-12-07T09:42:10;4.00;99.90
70986;DHT22;58645;43.068;25.610;2023-12-07T09:44:37;4.00;99.90
70986;DHT22;58645;43.068;25.610;2023-12-07T09:47:03;4.10;99.90
70986;DHT22;58645;43.068;25.610;2023-12-07T09:49:30;4.00;99.90
70986;DHT22;58645;43.068;25.610;2023-12-07T09:51:59;4.00;99.90
70986;DHT22;58645;43.068;25.610;2023-12-07T09:54:25;4.10;99.90
70986;DHT22;58645;43.068;25.610;2023-12-07T09:56:52;4.10;99.90
70986;DHT22;58645;43.068;25.610;2023-12-07T09:59:20;4.20;99.90
70986;DHT22;58645;43.068;25.610;2023-12-07T10:01:46;4.20;99.90
70986;DHT22;58645;43.068;25.610;2023-12-07T10:04:23;4.30;99.90
70986;DHT22;58645;43.068;25.610;2023-12-07T10:06:52;4.40;99.90
70986;DHT22;58645;43.068;25.610;2023-12-07T10:09:19;4.40;99.90
70986;DHT22;58645;43.068;25.610;2023-12-07T10:11:47;4.30;99.90
70986;DHT22;58645;43.068;25.610;2023-12-07T10:14:14;4.30;99.90
70986;DHT22;58645;43.068;25.610;2023-12-07T10:16:53;4.20;99.90
70986;DHT22;58645;43.068;25.610;2023-12-07T10:19:22;4.20;99.90
70986;DHT22;58645;43.068;25.610;2023-12-07T10:21:49;4.20;99.90
70986;DHT22;58645;43.068;25.610;2023-12-07T10:24:16;4.20;99.90
70986;DHT22;58645;43.068;25.610;2023-12-07T10:26:44;4.20;99.90
70986;DHT22;58645;43.068;25.610;2023-12-07T10:29:11;4.30;99.90
70986;DHT22;58645;43.068;25.610;2023-12-07T10:31:37;4.40;99.90
70986;DHT22;58645;43.068;25.610;2023-12-07T10:34:04;4.40;99.90
70986;DHT22;58645;43.068;25.610;2023-12-07T10:36:30;4.40;99.90
70986;DHT22;58645;43.068;25.610;2023-12-07T10:38:56;4.40;99.90
70986;DHT22;58645;43.068;25.610;2023-12-07T10:41:25;4.50;99.90
70986;DHT22;58645;43.068;25.610;2023-12-07T10:44:00;4.50;99.90
70986;DHT22;58645;43.068;25.610;2023-12-07T10:46:27;4.50;99.90
70986;DHT22;58645;43.068;25.610;2023-12-07T10:49:07;4.60;99.90
70986;DHT22;58645;43.068;25.610;2023-12-07T10:51:42;4.50;99.90
70986;DHT22;58645;43.068;25.610;2023-12-07T10:54:13;4.60;99.90
70986;DHT22;58645;43.068;25.610;2023-12-07T10:56:43;4.60;99.90
70986;DHT22;58645;43.068;25.610;2023-12-07T10:59:10;4.60;99.90
70986;DHT22;58645;43.068;25.610;2023-12-07T11:01:40;4.50;99.90
70986;DHT22;58645;43.068;25.610;2023-12-07T11:04:06;4.50;99.90
70986;DHT22;58645;43.068;25.610;2023-12-07T11:06:35;4.40;99.90
70986;DHT22;58645;43.068;25.610;2023-12-07T11:09:09;4.40;99.90
70986;DHT22;58645;43.068;25.610;2023-12-07T11:11:54;4.40;99.90
70986;DHT22;58645;43.068;25.610;2023-12-07T11:14:22;4.40;99.90
70986;DHT22;58645;43.068;25.610;2023-12-07T11:16:48;4.50;99.90
70986;DHT22;58645;43.068;25.610;2023-12-07T11:19:44;4.50;99.90
70986;DHT22;58645;43.068;25.610;2023-12-07T11:22:11;4.60;99.90
70986;DHT22;58645;43.068;25.610;2023-12-07T11:24:38;4.60;99.90
70986;DHT22;58645;43.068;25.610;2023-12-07T11:27:04;4.60;99.90
70986;DHT22;58645;43.068;25.610;2023-12-07T11:29:31;4.50;99.90
70986;DHT22;58645;43.068;25.610;2023-12-07T11:32:06;4.60;99.90
70986;DHT22;58645;43.068;25.610;2023-12-07T11:34:40;4.50;99.90
70986;DHT22;58645;43.068;25.610;2023-12-07T11:37:11;4.30;99.90
70986;DHT22;58645;43.068;25.610;2023-12-07T11:39:40;4.30;99.90
70986;DHT22;58645;43.068;25.610;2023-12-07T11:42:15;4.30;99.90
70986;DHT22;58645;43.068;25.610;2023-12-07T11:44:42;4.30;99.90
70986;DHT22;58645;43.068;25.610;2023-12-07T11:47:15;4.40;99.90
70986;DHT22;58645;43.068;25.610;2023-12-07T11:49:44;4.40;99.90
70986;DHT22;58645;43.068;25.610;2023-12-07T11:54:40;4.30;99.90
70986;DHT22;58645;43.068;25.610;2023-12-07T11:57:05;4.30;99.90
70986;DHT22;58645;43.068;25.610;2023-12-07T11:59:31;4.30;99.90
70986;DHT22;58645;43.068;25.610;2023-12-07T12:01:59;4.30;99.90
70986;DHT22;58645;43.068;25.610;2023-12-07T12:04:25;4.30;99.90
70986;DHT22;58645;43.068;25.610;2023-12-07T12:06:53;4.30;99.90
70986;DHT22;58645;43.068;25.610;2023-12-07T12:09:20;4.30;99.90
70986;DHT22;58645;43.068;25.610;2023-12-07T12:11:46;4.40;99.90
70986;DHT22;58645;43.068;25.610;2023-12-07T12:14:14;4.20;99.90
70986;DHT22;58645;43.068;25.610;2023-12-07T12:16:45;4.20;99.90
70986;DHT22;58645;43.068;25.610;2023-12-07T12:19:11;4.20;99.90
70986;DHT22;58645;43.068;25.610;2023-12-07T12:21:37;4.10;99.90
70986;DHT22;58645;43.068;25.610;2023-12-07T12:24:06;4.10;99.90
70986;DHT22;58645;43.068;25.610;2023-12-07T12:26:34;4.10;99.90
70986;DHT22;58645;43.068;25.610;2023-12-07T12:29:01;4.10;99.90
70986;DHT22;58645;43.068;25.610;2023-12-07T12:31:28;4.10;99.90
70986;DHT22;58645;43.068;25.610;2023-12-07T12:33:54;4.00;99.90
70986;DHT22;58645;43.068;25.610;2023-12-07T12:36:20;4.00;99.90
70986;DHT22;58645;43.068;25.610;2023-12-07T12:38:49;4.00;99.90
70986;DHT22;58645;43.068;25.610;2023-12-07T12:41:19;4.00;99.90
70986;DHT22;58645;43.068;25.610;2023-12-07T12:43:45;4.20;99.90
70986;DHT22;58645;43.068;25.610;2023-12-07T12:46:11;4.00;99.90
70986;DHT22;58645;43.068;25.610;2023-12-07T12:48:37;4.00;99.90
70986;DHT22;58645;43.068;25.610;2023-12-07T12:51:13;4.20;99.90
70986;DHT22;58645;43.068;25.610;2023-12-07T12:53:45;4.00;99.90
70986;DHT22;58645;43.068;25.610;2023-12-07T12:56:12;4.00;99.90
70986;DHT22;58645;43.068;25.610;2023-12-07T12:58:39;4.00;99.90
70986;DHT22;58645;43.068;25.610;2023-12-07T13:01:05;4.00;99.90
70986;DHT22;58645;43.068;25.610;2023-12-07T13:03:32;4.00;99.90
70986;DHT22;58645;43.068;25.610;2023-12-07T13:05:58;3.90;99.90
70986;DHT22;58645;43.068;25.610;2023-12-07T13:08:24;4.00;99.90
70986;DHT22;58645;43.068;25.610;2023-12-07T13:10:50;3.90;99.90
70986;DHT22;58645;43.068;25.610;2023-12-07T13:13:15;3.90;99.90
70986;DHT22;58645;43.068;25.610;2023-12-07T13:15:42;3.90;99.90
70986;DHT22;58645;43.068;25.610;2023-12-07T13:18:08;3.80;99.90
70986;DHT22;58645;43.068;25.610;2023-12-07T13:20:36;3.80;99.90
70986;DHT22;58645;43.068;25.610;2023-12-07T13:23:02;3.80;99.90
70986;DHT22;58645;43.068;25.610;2023-12-07T13:25:29;3.80;99.90
70986;DHT22;58645;43.068;25.610;2023-12-07T13:27:54;3.80;99.90
70986;DHT22;58645;43.068;25.610;2023-12-07T13:30:20;3.80;99.90
70986;DHT22;58645;43.068;25.610;2023-12-07T13:32:46;3.80;99.90
70986;DHT22;58645;43.068;25.610;2023-12-07T13:35:13;3.80;99.90
70986;DHT22;58645;43.068;25.610;2023-12-07T13:37:39;3.80;99.90
70986;DHT22;58645;43.068;25.610;2023-12-07T13:40:05;3.80;99.90
70986;DHT22;58645;43.068;25.610;2023-12-07T13:42:36;3.70;99.90
70986;DHT22;58645;43.068;25.610;2023-12-07T13:45:02;3.70;99.90
70986;DHT22;58645;43.068;25.610;2023-12-07T13:47:28;3.70;99.90
70986;DHT22;58645;43.068;25.610;2023-12-07T13:50:00;3.60;99.90
70986;DHT22;58645;43.068;25.610;2023-12-07T13:52:26;3.70;99.90
70986;DHT22;58645;43.068;25.610;2023-12-07T13:54:54;3.70;99.90
70986;DHT22;58645;43.068;25.610;2023-12-07T13:57:20;3.70;99.90
70986;DHT22;58645;43.068;25.610;2023-12-07T13:59:47;3.70;99.90
70986;DHT22;58645;43.068;25.610;2023-12-07T14:02:13;3.70;99.90
70986;DHT22;58645;43.068;25.610;2023-12-07T14:04:39;3.70;99.90
70986;DHT22;58645;43.068;25.610;2023-12-07T14:09:34;3.80;99.90
70986;DHT22;58645;43.068;25.610;2023-12-07T14:12:00;3.80;99.90
70986;DHT22;58645;43.068;25.610;2023-12-07T14:14:25;3.70;99.90
70986;DHT22;58645;43.068;25.610;2023-12-07T14:16:51;3.60;99.90
70986;DHT22;58645;43.068;25.610;2023-12-07T14:19:17;3.60;99.90
70986;DHT22;58645;43.068;25.610;2023-12-07T14:21:43;3.60;99.90
70986;DHT22;58645;43.068;25.610;2023-12-07T14:24:09;3.60;99.90
70986;DHT22;58645;43.068;25.610;2023-12-07T14:26:35;3.60;99.90
70986;DHT22;58645;43.068;25.610;2023-12-07T14:29:01;3.60;99.90
70986;DHT22;58645;43.068;25.610;2023-12-07T14:31:26;3.50;99.90
70986;DHT22;58645;43.068;25.610;2023-12-07T14:33:52;3.60;99.90
70986;DHT22;58645;43.068;25.610;2023-12-07T14:36:19;3.60;99.90
70986;DHT22;58645;43.068;25.610;2023-12-07T14:38:45;3.60;99.90
70986;DHT22;58645;43.068;25.610;2023-12-07T14:41:11;3.60;99.90
70986;DHT22;58645;43.068;25.610;2023-12-07T14:43:38;3.60;99.90
70986;DHT22;58645;43.068;25.610;2023-12-07T14:46:06;3.60;99.90
70986;DHT22;58645;43.068;25.610;2023-12-07T14:48:33;3.60;99.90
70986;DHT22;58645;43.068;25.610;2023-12-07T14:50:59;3.60;99.90
70986;DHT22;58645;43.068;25.610;2023-12-07T14:53:25;3.60;99.90
70986;DHT22;58645;43.068;25.610;2023-12-07T14:55:51;3.50;99.90
70986;DHT22;58645;43.068;25.610;2023-12-07T14:58:17;3.50;99.90
70986;DHT22;58645;43.068;25.610;2023-12-07T15:00:48;3.50;99.90
70986;DHT22;58645;43.068;25.610;2023-12-07T15:03:14;3.50;99.90
70986;DHT22;58645;43.068;25.610;2023-12-07T15:05:40;3.40;99.90
70986;DHT22;58645;43.068;25.610;2023-12-07T15:08:06;3.30;99.90
70986;DHT22;58645;43.068;25.610;2023-12-07T15:10:32;3.40;99.90
70986;DHT22;58645;43.068;25.610;2023-12-07T15:12:58;3.40;99.90
70986;DHT22;58645;43.068;25.610;2023-12-07T15:15:23;3.30;99.90
70986;DHT22;58645;43.068;25.610;2023-12-07T15:17:49;3.30;99.90
70986;DHT22;58645;43.068;25.610;2023-12-07T15:20:15;3.30;99.90
70986;DHT22;58645;43.068;25.610;2023-12-07T15:22:40;3.30;99.90
70986;DHT22;58645;43.068;25.610;2023-12-07T15:25:07;3.30;99.90
70986;DHT22;58645;43.068;25.610;2023-12-07T15:27:33;3.40;99.90
70986;DHT22;58645;43.068;25.610;2023-12-07T15:29:59;3.40;99.90
70986;DHT22;58645;43.068;25.610;2023-12-07T15:32:24;3.30;99.90
70986;DHT22;58645;43.068;25.610;2023-12-07T15:34:50;3.30;99.90
70986;DHT22;58645;43.068;25.610;2023-12-07T15:37:16;3.40;99.90
70986;DHT22;58645;43.068;25.610;2023-12-07T15:39:43;3.40;99.90
70986;DHT22;58645;43.068;25.610;2023-12-07T15:42:09;3.30;99.90